Terminal Aerodrome Forecast
Issued by NWS

Home | Current Version | Previous Version | Text Only | Print | Product List | Glossary On
Versions: 1 2 3 4 5 6 7 8 9 10 11 12 13 14 15 16 17
000
FTUS45 KGJT 191631 AAD
TAFVEL
TAF AMD
KVEL 191631Z 1917/2012 06012G16KT 1/4SM +SN FZFG VV004
      TEMPO 1917/1918 1SM -SN BR OVC006
     FM191800 23013G22KT 5SM -SHSN OVC045
     FM200200 04013KT P6SM VCSH BKN040 OVC060
     FM200800 10004KT P6SM BKN030 OVC035=

USA.gov is the U.S. government's official web portal to all federal, state and local government web resources and services.